sensor_id;sensor_type;location;lat;lon;timestamp;P1;durP1;ratioP1;P2;durP2;ratioP2
17864;SDS011;9058;52.018;4.202;2024-03-08T00:00:28;35.73;;;28.57;;
17864;SDS011;9058;52.018;4.202;2024-03-08T00:02:57;39.20;;;30.93;;
17864;SDS011;9058;52.018;4.202;2024-03-08T00:05:24;36.70;;;31.00;;
17864;SDS011;9058;52.018;4.202;2024-03-08T00:07:52;36.93;;;32.13;;
17864;SDS011;9058;52.018;4.202;2024-03-08T00:10:19;36.83;;;31.40;;
17864;SDS011;9058;52.018;4.202;2024-03-08T00:12:56;36.30;;;30.30;;
17864;SDS011;9058;52.018;4.202;2024-03-08T00:15:23;35.10;;;31.00;;
17864;SDS011;9058;52.018;4.202;2024-03-08T00:17:49;37.50;;;32.40;;
17864;SDS011;9058;52.018;4.202;2024-03-08T00:20:16;36.78;;;29.92;;
17864;SDS011;9058;52.018;4.202;2024-03-08T00:22:44;37.57;;;32.07;;
17864;SDS011;9058;52.018;4.202;2024-03-08T00:25:13;36.83;;;31.20;;
17864;SDS011;9058;52.018;4.202;2024-03-08T00:27:41;26.20;;;23.53;;
17864;SDS011;9058;52.018;4.202;2024-03-08T00:30:08;35.27;;;31.47;;
17864;SDS011;9058;52.018;4.202;2024-03-08T00:32:36;39.10;;;28.07;;
17864;SDS011;9058;52.018;4.202;2024-03-08T00:35:03;32.87;;;27.90;;
17864;SDS011;9058;52.018;4.202;2024-03-08T00:37:32;37.23;;;32.10;;
17864;SDS011;9058;52.018;4.202;2024-03-08T00:39:59;37.87;;;29.30;;
17864;SDS011;9058;52.018;4.202;2024-03-08T00:42:26;32.17;;;28.53;;
17864;SDS011;9058;52.018;4.202;2024-03-08T00:44:53;40.45;;;34.03;;
17864;SDS011;9058;52.018;4.202;2024-03-08T00:47:19;40.80;;;34.60;;
17864;SDS011;9058;52.018;4.202;2024-03-08T00:49:46;42.77;;;33.00;;
17864;SDS011;9058;52.018;4.202;2024-03-08T00:52:12;40.43;;;33.33;;
17864;SDS011;9058;52.018;4.202;2024-03-08T00:54:40;36.23;;;31.93;;
17864;SDS011;9058;52.018;4.202;2024-03-08T00:57:08;35.43;;;31.43;;
17864;SDS011;9058;52.018;4.202;2024-03-08T00:59:37;36.93;;;32.93;;
17864;SDS011;9058;52.018;4.202;2024-03-08T01:02:03;38.07;;;33.57;;
17864;SDS011;9058;52.018;4.202;2024-03-08T01:04:31;38.90;;;31.93;;
17864;SDS011;9058;52.018;4.202;2024-03-08T01:06:58;40.30;;;33.83;;
17864;SDS011;9058;52.018;4.202;2024-03-08T01:09:25;38.05;;;33.92;;
17864;SDS011;9058;52.018;4.202;2024-03-08T01:11:52;35.65;;;30.58;;
17864;SDS011;9058;52.018;4.202;2024-03-08T01:14:20;35.60;;;30.30;;
17864;SDS011;9058;52.018;4.202;2024-03-08T01:16:49;38.33;;;33.23;;
17864;SDS011;9058;52.018;4.202;2024-03-08T01:19:15;36.93;;;32.90;;
17864;SDS011;9058;52.018;4.202;2024-03-08T01:21:42;35.60;;;30.83;;
17864;SDS011;9058;52.018;4.202;2024-03-08T01:24:09;38.40;;;34.37;;
17864;SDS011;9058;52.018;4.202;2024-03-08T01:26:36;37.63;;;31.63;;
17864;SDS011;9058;52.018;4.202;2024-03-08T01:29:02;37.70;;;31.95;;
17864;SDS011;9058;52.018;4.202;2024-03-08T01:31:30;40.23;;;34.43;;
17864;SDS011;9058;52.018;4.202;2024-03-08T01:33:59;43.57;;;34.80;;
17864;SDS011;9058;52.018;4.202;2024-03-08T01:36:26;39.20;;;35.10;;
17864;SDS011;9058;52.018;4.202;2024-03-08T01:38:52;35.57;;;31.37;;
17864;SDS011;9058;52.018;4.202;2024-03-08T01:41:19;38.57;;;33.77;;
17864;SDS011;9058;52.018;4.202;2024-03-08T01:43:45;37.27;;;32.37;;
17864;SDS011;9058;52.018;4.202;2024-03-08T01:46:12;38.03;;;33.80;;
17864;SDS011;9058;52.018;4.202;2024-03-08T01:48:40;39.80;;;35.57;;
17864;SDS011;9058;52.018;4.202;2024-03-08T01:51:16;39.93;;;34.27;;
17864;SDS011;9058;52.018;4.202;2024-03-08T01:53:42;37.17;;;30.63;;
17864;SDS011;9058;52.018;4.202;2024-03-08T01:56:11;39.70;;;35.53;;
17864;SDS011;9058;52.018;4.202;2024-03-08T01:58:39;37.03;;;32.90;;
17864;SDS011;9058;52.018;4.202;2024-03-08T02:01:07;34.60;;;30.90;;
17864;SDS011;9058;52.018;4.202;2024-03-08T02:03:34;34.60;;;29.33;;
17864;SDS011;9058;52.018;4.202;2024-03-08T02:06:00;34.30;;;30.60;;
17864;SDS011;9058;52.018;4.202;2024-03-08T02:08:29;34.00;;;30.40;;
17864;SDS011;9058;52.018;4.202;2024-03-08T02:10:56;38.73;;;33.13;;
17864;SDS011;9058;52.018;4.202;2024-03-08T02:13:23;35.20;;;29.83;;
17864;SDS011;9058;52.018;4.202;2024-03-08T02:15:50;27.77;;;25.07;;
17864;SDS011;9058;52.018;4.202;2024-03-08T02:18:17;38.87;;;34.63;;
17864;SDS011;9058;52.018;4.202;2024-03-08T02:20:45;29.00;;;25.97;;
17864;SDS011;9058;52.018;4.202;2024-03-08T02:23:12;38.03;;;34.20;;
17864;SDS011;9058;52.018;4.202;2024-03-08T02:25:39;32.23;;;28.80;;
17864;SDS011;9058;52.018;4.202;2024-03-08T02:28:07;33.97;;;30.37;;
17864;SDS011;9058;52.018;4.202;2024-03-08T02:30:34;36.37;;;32.57;;
17864;SDS011;9058;52.018;4.202;2024-03-08T02:33:01;37.43;;;33.67;;
17864;SDS011;9058;52.018;4.202;2024-03-08T02:35:27;35.73;;;32.13;;
17864;SDS011;9058;52.018;4.202;2024-03-08T02:37:55;41.63;;;37.33;;
17864;SDS011;9058;52.018;4.202;2024-03-08T02:40:22;37.17;;;33.50;;
17864;SDS011;9058;52.018;4.202;2024-03-08T02:42:48;38.83;;;34.77;;
17864;SDS011;9058;52.018;4.202;2024-03-08T02:45:15;37.73;;;33.83;;
17864;SDS011;9058;52.018;4.202;2024-03-08T02:47:42;38.20;;;34.43;;
17864;SDS011;9058;52.018;4.202;2024-03-08T02:50:09;35.60;;;32.10;;
17864;SDS011;9058;52.018;4.202;2024-03-08T02:52:36;33.93;;;30.23;;
17864;SDS011;9058;52.018;4.202;2024-03-08T02:55:05;37.10;;;33.10;;
17864;SDS011;9058;52.018;4.202;2024-03-08T02:57:32;39.53;;;35.47;;
17864;SDS011;9058;52.018;4.202;2024-03-08T02:59:59;34.25;;;29.45;;
17864;SDS011;9058;52.018;4.202;2024-03-08T03:02:26;38.43;;;34.47;;
17864;SDS011;9058;52.018;4.202;2024-03-08T03:04:52;37.97;;;33.73;;
17864;SDS011;9058;52.018;4.202;2024-03-08T03:07:21;38.70;;;34.57;;
17864;SDS011;9058;52.018;4.202;2024-03-08T03:09:47;39.77;;;35.83;;
17864;SDS011;9058;52.018;4.202;2024-03-08T03:12:15;36.43;;;32.73;;
17864;SDS011;9058;52.018;4.202;2024-03-08T03:14:43;34.97;;;31.03;;
17864;SDS011;9058;52.018;4.202;2024-03-08T03:17:09;38.27;;;34.30;;
17864;SDS011;9058;52.018;4.202;2024-03-08T03:19:36;37.53;;;33.50;;
17864;SDS011;9058;52.018;4.202;2024-03-08T03:22:04;36.03;;;32.40;;
17864;SDS011;9058;52.018;4.202;2024-03-08T03:24:32;36.73;;;32.57;;
17864;SDS011;9058;52.018;4.202;2024-03-08T03:26:59;40.83;;;36.33;;
17864;SDS011;9058;52.018;4.202;2024-03-08T03:29:27;35.60;;;31.87;;
17864;SDS011;9058;52.018;4.202;2024-03-08T03:31:55;37.20;;;33.23;;
17864;SDS011;9058;52.018;4.202;2024-03-08T03:34:22;32.57;;;29.20;;
17864;SDS011;9058;52.018;4.202;2024-03-08T03:36:49;38.17;;;34.20;;
17864;SDS011;9058;52.018;4.202;2024-03-08T03:39:16;37.77;;;32.57;;
17864;SDS011;9058;52.018;4.202;2024-03-08T03:41:45;37.13;;;33.30;;
17864;SDS011;9058;52.018;4.202;2024-03-08T03:44:13;36.03;;;32.13;;
17864;SDS011;9058;52.018;4.202;2024-03-08T03:46:43;35.13;;;31.53;;
17864;SDS011;9058;52.018;4.202;2024-03-08T03:49:10;38.70;;;34.83;;
17864;SDS011;9058;52.018;4.202;2024-03-08T03:51:36;40.50;;;35.30;;
17864;SDS011;9058;52.018;4.202;2024-03-08T03:54:03;37.37;;;33.50;;
17864;SDS011;9058;52.018;4.202;2024-03-08T03:56:29;32.50;;;29.23;;
17864;SDS011;9058;52.018;4.202;2024-03-08T03:58:56;37.97;;;33.90;;
17864;SDS011;9058;52.018;4.202;2024-03-08T04:01:23;32.87;;;29.87;;
17864;SDS011;9058;52.018;4.202;2024-03-08T04:03:51;38.63;;;34.67;;
17864;SDS011;9058;52.018;4.202;2024-03-08T04:06:18;30.67;;;27.87;;
17864;SDS011;9058;52.018;4.202;2024-03-08T04:08:45;35.33;;;31.17;;
17864;SDS011;9058;52.018;4.202;2024-03-08T04:11:12;35.57;;;31.97;;
17864;SDS011;9058;52.018;4.202;2024-03-08T04:13:41;39.27;;;33.00;;
17864;SDS011;9058;52.018;4.202;2024-03-08T04:16:07;31.83;;;28.53;;
17864;SDS011;9058;52.018;4.202;2024-03-08T04:18:36;37.73;;;34.23;;
17864;SDS011;9058;52.018;4.202;2024-03-08T04:21:05;41.23;;;37.00;;
17864;SDS011;9058;52.018;4.202;2024-03-08T04:23:33;37.20;;;33.60;;
17864;SDS011;9058;52.018;4.202;2024-03-08T04:26:00;36.80;;;33.03;;
17864;SDS011;9058;52.018;4.202;2024-03-08T04:28:28;34.13;;;30.67;;
17864;SDS011;9058;52.018;4.202;2024-03-08T04:30:55;38.37;;;34.23;;
17864;SDS011;9058;52.018;4.202;2024-03-08T04:33:21;36.30;;;32.87;;
17864;SDS011;9058;52.018;4.202;2024-03-08T04:35:48;32.30;;;29.17;;
17864;SDS011;9058;52.018;4.202;2024-03-08T04:38:17;38.33;;;34.60;;
17864;SDS011;9058;52.018;4.202;2024-03-08T04:40:44;38.80;;;34.83;;
17864;SDS011;9058;52.018;4.202;2024-03-08T04:43:11;37.27;;;33.40;;
17864;SDS011;9058;52.018;4.202;2024-03-08T04:45:37;41.07;;;37.00;;
17864;SDS011;9058;52.018;4.202;2024-03-08T04:48:04;39.57;;;35.47;;
17864;SDS011;9058;52.018;4.202;2024-03-08T04:50:31;36.33;;;32.60;;
17864;SDS011;9058;52.018;4.202;2024-03-08T04:52:57;40.43;;;36.23;;
17864;SDS011;9058;52.018;4.202;2024-03-08T04:55:25;37.30;;;33.57;;
17864;SDS011;9058;52.018;4.202;2024-03-08T04:57:52;39.93;;;35.97;;
17864;SDS011;9058;52.018;4.202;2024-03-08T05:00:18;35.83;;;32.23;;
17864;SDS011;9058;52.018;4.202;2024-03-08T05:02:45;35.90;;;32.33;;
17864;SDS011;9058;52.018;4.202;2024-03-08T05:05:12;36.47;;;33.13;;
17864;SDS011;9058;52.018;4.202;2024-03-08T05:07:40;35.67;;;32.33;;
17864;SDS011;9058;52.018;4.202;2024-03-08T05:10:08;41.80;;;37.40;;
17864;SDS011;9058;52.018;4.202;2024-03-08T05:12:37;40.87;;;36.77;;
17864;SDS011;9058;52.018;4.202;2024-03-08T05:15:04;37.83;;;34.07;;
17864;SDS011;9058;52.018;4.202;2024-03-08T05:17:32;42.37;;;37.90;;
17864;SDS011;9058;52.018;4.202;2024-03-08T05:19:59;48.03;;;37.17;;
17864;SDS011;9058;52.018;4.202;2024-03-08T05:22:25;36.97;;;33.00;;
17864;SDS011;9058;52.018;4.202;2024-03-08T05:24:53;38.30;;;34.40;;
17864;SDS011;9058;52.018;4.202;2024-03-08T05:27:19;39.27;;;35.17;;
17864;SDS011;9058;52.018;4.202;2024-03-08T05:29:47;38.63;;;34.83;;
17864;SDS011;9058;52.018;4.202;2024-03-08T05:32:14;42.53;;;38.27;;
17864;SDS011;9058;52.018;4.202;2024-03-08T05:34:41;39.63;;;34.83;;
17864;SDS011;9058;52.018;4.202;2024-03-08T05:37:09;38.63;;;34.90;;
17864;SDS011;9058;52.018;4.202;2024-03-08T05:39:36;41.13;;;36.70;;
17864;SDS011;9058;52.018;4.202;2024-03-08T05:42:04;39.80;;;35.83;;
17864;SDS011;9058;52.018;4.202;2024-03-08T05:44:33;37.47;;;33.47;;
17864;SDS011;9058;52.018;4.202;2024-03-08T05:47:03;38.23;;;34.33;;
17864;SDS011;9058;52.018;4.202;2024-03-08T05:49:29;37.27;;;33.57;;
17864;SDS011;9058;52.018;4.202;2024-03-08T05:51:56;34.57;;;31.40;;
17864;SDS011;9058;52.018;4.202;2024-03-08T05:54:25;36.40;;;32.90;;
17864;SDS011;9058;52.018;4.202;2024-03-08T05:56:52;40.30;;;36.33;;
17864;SDS011;9058;52.018;4.202;2024-03-08T05:59:19;36.57;;;32.67;;
17864;SDS011;9058;52.018;4.202;2024-03-08T06:01:48;38.70;;;34.60;;
17864;SDS011;9058;52.018;4.202;2024-03-08T06:04:19;34.87;;;31.20;;
17864;SDS011;9058;52.018;4.202;2024-03-08T06:06:45;40.00;;;36.07;;
17864;SDS011;9058;52.018;4.202;2024-03-08T06:09:13;33.43;;;30.30;;
17864;SDS011;9058;52.018;4.202;2024-03-08T06:11:47;36.73;;;32.90;;
17864;SDS011;9058;52.018;4.202;2024-03-08T06:14:14;33.80;;;30.53;;
17864;SDS011;9058;52.018;4.202;2024-03-08T06:16:43;39.67;;;35.47;;
17864;SDS011;9058;52.018;4.202;2024-03-08T06:19:11;37.37;;;33.20;;
17864;SDS011;9058;52.018;4.202;2024-03-08T06:21:41;42.67;;;38.23;;
17864;SDS011;9058;52.018;4.202;2024-03-08T06:24:08;38.60;;;34.77;;
17864;SDS011;9058;52.018;4.202;2024-03-08T06:26:35;40.20;;;36.23;;
17864;SDS011;9058;52.018;4.202;2024-03-08T06:29:02;41.07;;;37.00;;
17864;SDS011;9058;52.018;4.202;2024-03-08T06:31:31;38.00;;;34.10;;
17864;SDS011;9058;52.018;4.202;2024-03-08T06:33:58;37.00;;;33.33;;
17864;SDS011;9058;52.018;4.202;2024-03-08T06:36:24;36.17;;;32.30;;
17864;SDS011;9058;52.018;4.202;2024-03-08T06:38:54;39.60;;;35.60;;
17864;SDS011;9058;52.018;4.202;2024-03-08T06:41:22;40.17;;;36.13;;
17864;SDS011;9058;52.018;4.202;2024-03-08T06:43:49;39.23;;;35.63;;
17864;SDS011;9058;52.018;4.202;2024-03-08T06:46:17;31.00;;;28.00;;
17864;SDS011;9058;52.018;4.202;2024-03-08T06:48:45;40.80;;;36.57;;
17864;SDS011;9058;52.018;4.202;2024-03-08T06:51:12;39.20;;;35.10;;
17864;SDS011;9058;52.018;4.202;2024-03-08T06:53:39;41.03;;;36.90;;
17864;SDS011;9058;52.018;4.202;2024-03-08T06:56:07;38.27;;;34.43;;
17864;SDS011;9058;52.018;4.202;2024-03-08T06:58:33;39.67;;;35.80;;
17864;SDS011;9058;52.018;4.202;2024-03-08T07:01:01;28.33;;;25.67;;
17864;SDS011;9058;52.018;4.202;2024-03-08T07:03:29;40.77;;;36.67;;
17864;SDS011;9058;52.018;4.202;2024-03-08T07:05:57;34.97;;;31.77;;
17864;SDS011;9058;52.018;4.202;2024-03-08T07:08:24;37.17;;;33.47;;
17864;SDS011;9058;52.018;4.202;2024-03-08T07:10:52;35.80;;;32.03;;
17864;SDS011;9058;52.018;4.202;2024-03-08T07:13:20;35.40;;;31.73;;
17864;SDS011;9058;52.018;4.202;2024-03-08T07:15:47;33.37;;;29.97;;
17864;SDS011;9058;52.018;4.202;2024-03-08T07:18:14;35.40;;;31.57;;
17864;SDS011;9058;52.018;4.202;2024-03-08T07:20:41;31.93;;;28.57;;
17864;SDS011;9058;52.018;4.202;2024-03-08T07:23:08;34.87;;;31.27;;
17864;SDS011;9058;52.018;4.202;2024-03-08T07:25:35;33.80;;;30.23;;
17864;SDS011;9058;52.018;4.202;2024-03-08T07:28:01;27.50;;;24.87;;
17864;SDS011;9058;52.018;4.202;2024-03-08T07:30:30;34.37;;;30.73;;
17864;SDS011;9058;52.018;4.202;2024-03-08T07:33:14;33.00;;;29.60;;
17864;SDS011;9058;52.018;4.202;2024-03-08T07:35:40;35.30;;;31.37;;
17864;SDS011;9058;52.018;4.202;2024-03-08T07:38:07;26.87;;;24.20;;
17864;SDS011;9058;52.018;4.202;2024-03-08T07:40:35;26.35;;;23.58;;
17864;SDS011;9058;52.018;4.202;2024-03-08T07:43:01;30.77;;;26.90;;
17864;SDS011;9058;52.018;4.202;2024-03-08T07:45:29;26.45;;;23.88;;
17864;SDS011;9058;52.018;4.202;2024-03-08T07:47:56;31.67;;;27.97;;
17864;SDS011;9058;52.018;4.202;2024-03-08T07:50:23;24.60;;;22.10;;
17864;SDS011;9058;52.018;4.202;2024-03-08T07:52:50;23.95;;;21.40;;
17864;SDS011;9058;52.018;4.202;2024-03-08T07:55:16;28.57;;;23.73;;
17864;SDS011;9058;52.018;4.202;2024-03-08T07:57:44;28.27;;;25.30;;
17864;SDS011;9058;52.018;4.202;2024-03-08T08:00:11;22.08;;;19.38;;
17864;SDS011;9058;52.018;4.202;2024-03-08T08:02:45;22.42;;;20.08;;
17864;SDS011;9058;52.018;4.202;2024-03-08T08:05:14;25.33;;;20.73;;
17864;SDS011;9058;52.018;4.202;2024-03-08T08:07:43;29.23;;;24.90;;
17864;SDS011;9058;52.018;4.202;2024-03-08T08:10:11;27.33;;;24.27;;
17864;SDS011;9058;52.018;4.202;2024-03-08T08:12:43;21.33;;;19.13;;
17864;SDS011;9058;52.018;4.202;2024-03-08T08:15:10;25.00;;;22.33;;
17864;SDS011;9058;52.018;4.202;2024-03-08T08:17:37;22.42;;;20.00;;
17864;SDS011;9058;52.018;4.202;2024-03-08T08:20:05;26.63;;;23.38;;
17864;SDS011;9058;52.018;4.202;2024-03-08T08:22:32;26.63;;;22.20;;
17864;SDS011;9058;52.018;4.202;2024-03-08T08:24:59;25.17;;;20.42;;
17864;SDS011;9058;52.018;4.202;2024-03-08T08:27:27;21.05;;;18.42;;
17864;SDS011;9058;52.018;4.202;2024-03-08T08:29:53;24.23;;;19.83;;
17864;SDS011;9058;52.018;4.202;2024-03-08T08:32:21;27.08;;;19.95;;
17864;SDS011;9058;52.018;4.202;2024-03-08T08:34:47;21.30;;;18.38;;
17864;SDS011;9058;52.018;4.202;2024-03-08T08:37:14;22.20;;;19.85;;
17864;SDS011;9058;52.018;4.202;2024-03-08T08:39:41;24.95;;;19.95;;
17864;SDS011;9058;52.018;4.202;2024-03-08T08:42:08;26.98;;;19.88;;
17864;SDS011;9058;52.018;4.202;2024-03-08T08:44:36;21.02;;;16.83;;
17864;SDS011;9058;52.018;4.202;2024-03-08T08:47:02;28.38;;;22.85;;
17864;SDS011;9058;52.018;4.202;2024-03-08T08:49:30;20.70;;;17.58;;
17864;SDS011;9058;52.018;4.202;2024-03-08T08:51:57;18.65;;;15.13;;
17864;SDS011;9058;52.018;4.202;2024-03-08T08:54:26;19.00;;;16.00;;
17864;SDS011;9058;52.018;4.202;2024-03-08T08:56:52;20.17;;;16.65;;
17864;SDS011;9058;52.018;4.202;2024-03-08T08:59:19;22.08;;;15.50;;
17864;SDS011;9058;52.018;4.202;2024-03-08T09:01:48;24.92;;;16.33;;
17864;SDS011;9058;52.018;4.202;2024-03-08T09:04:15;21.13;;;17.30;;
17864;SDS011;9058;52.018;4.202;2024-03-08T09:06:41;19.85;;;14.63;;
17864;SDS011;9058;52.018;4.202;2024-03-08T09:09:09;23.60;;;16.38;;
17864;SDS011;9058;52.018;4.202;2024-03-08T09:11:38;24.10;;;15.98;;
17864;SDS011;9058;52.018;4.202;2024-03-08T09:14:06;17.42;;;12.40;;
17864;SDS011;9058;52.018;4.202;2024-03-08T09:16:33;21.48;;;14.00;;
17864;SDS011;9058;52.018;4.202;2024-03-08T09:19:00;15.82;;;11.15;;
17864;SDS011;9058;52.018;4.202;2024-03-08T09:21:27;18.25;;;12.80;;
17864;SDS011;9058;52.018;4.202;2024-03-08T09:23:53;20.98;;;16.25;;
17864;SDS011;9058;52.018;4.202;2024-03-08T09:26:20;24.77;;;16.38;;
17864;SDS011;9058;52.018;4.202;2024-03-08T09:28:49;18.90;;;14.00;;
17864;SDS011;9058;52.018;4.202;2024-03-08T09:31:15;23.42;;;14.57;;
17864;SDS011;9058;52.018;4.202;2024-03-08T09:33:42;19.27;;;11.77;;
17864;SDS011;9058;52.018;4.202;2024-03-08T09:36:08;21.60;;;15.93;;
17864;SDS011;9058;52.018;4.202;2024-03-08T09:38:35;20.92;;;13.63;;
17864;SDS011;9058;52.018;4.202;2024-03-08T09:41:01;21.52;;;14.63;;
17864;SDS011;9058;52.018;4.202;2024-03-08T09:43:29;19.27;;;14.30;;
17864;SDS011;9058;52.018;4.202;2024-03-08T09:45:57;17.20;;;12.95;;
17864;SDS011;9058;52.018;4.202;2024-03-08T09:48:23;18.35;;;13.88;;
17864;SDS011;9058;52.018;4.202;2024-03-08T09:50:54;14.38;;;11.75;;
17864;SDS011;9058;52.018;4.202;2024-03-08T09:53:21;20.02;;;13.95;;
17864;SDS011;9058;52.018;4.202;2024-03-08T09:55:49;20.05;;;14.30;;
17864;SDS011;9058;52.018;4.202;2024-03-08T09:58:15;24.90;;;16.42;;
17864;SDS011;9058;52.018;4.202;2024-03-08T10:01:00;17.88;;;12.82;;
17864;SDS011;9058;52.018;4.202;2024-03-08T10:03:27;24.67;;;16.88;;
17864;SDS011;9058;52.018;4.202;2024-03-08T10:05:53;23.38;;;17.05;;
17864;SDS011;9058;52.018;4.202;2024-03-08T10:08:21;22.33;;;16.55;;
17864;SDS011;9058;52.018;4.202;2024-03-08T10:10:48;22.70;;;14.60;;
17864;SDS011;9058;52.018;4.202;2024-03-08T10:13:18;21.23;;;15.35;;
17864;SDS011;9058;52.018;4.202;2024-03-08T10:15:45;20.13;;;14.82;;
17864;SDS011;9058;52.018;4.202;2024-03-08T10:18:13;18.27;;;13.07;;
17864;SDS011;9058;52.018;4.202;2024-03-08T10:20:39;21.10;;;17.17;;
17864;SDS011;9058;52.018;4.202;2024-03-08T10:23:06;22.30;;;18.38;;
17864;SDS011;9058;52.018;4.202;2024-03-08T10:25:36;18.30;;;14.57;;
17864;SDS011;9058;52.018;4.202;2024-03-08T10:28:03;22.05;;;16.75;;
17864;SDS011;9058;52.018;4.202;2024-03-08T10:30:30;20.30;;;16.13;;
17864;SDS011;9058;52.018;4.202;2024-03-08T10:32:57;15.40;;;13.02;;
17864;SDS011;9058;52.018;4.202;2024-03-08T10:35:25;20.35;;;15.02;;
17864;SDS011;9058;52.018;4.202;2024-03-08T10:37:52;18.33;;;13.05;;
17864;SDS011;9058;52.018;4.202;2024-03-08T10:40:25;18.95;;;15.27;;
17864;SDS011;9058;52.018;4.202;2024-03-08T10:42:52;17.48;;;13.02;;
17864;SDS011;9058;52.018;4.202;2024-03-08T10:45:23;18.00;;;12.98;;
17864;SDS011;9058;52.018;4.202;2024-03-08T10:47:54;18.00;;;14.65;;
17864;SDS011;9058;52.018;4.202;2024-03-08T10:50:25;17.40;;;14.57;;
17864;SDS011;9058;52.018;4.202;2024-03-08T10:52:52;19.50;;;14.63;;
17864;SDS011;9058;52.018;4.202;2024-03-08T10:55:20;19.27;;;14.93;;
17864;SDS011;9058;52.018;4.202;2024-03-08T10:57:47;21.35;;;16.58;;
17864;SDS011;9058;52.018;4.202;2024-03-08T11:00:16;17.30;;;13.65;;
17864;SDS011;9058;52.018;4.202;2024-03-08T11:02:51;21.35;;;16.05;;
17864;SDS011;9058;52.018;4.202;2024-03-08T11:05:31;17.48;;;13.38;;
17864;SDS011;9058;52.018;4.202;2024-03-08T11:08:00;18.70;;;14.68;;
17864;SDS011;9058;52.018;4.202;2024-03-08T11:10:26;17.98;;;13.20;;
17864;SDS011;9058;52.018;4.202;2024-03-08T11:12:54;19.52;;;16.67;;
17864;SDS011;9058;52.018;4.202;2024-03-08T11:15:20;19.88;;;14.73;;
17864;SDS011;9058;52.018;4.202;2024-03-08T11:17:49;20.13;;;12.93;;
17864;SDS011;9058;52.018;4.202;2024-03-08T11:20:16;16.92;;;13.48;;
17864;SDS011;9058;52.018;4.202;2024-03-08T11:22:49;15.85;;;12.32;;
17864;SDS011;9058;52.018;4.202;2024-03-08T11:25:33;14.88;;;10.48;;
17864;SDS011;9058;52.018;4.202;2024-03-08T11:28:08;17.05;;;13.05;;
17864;SDS011;9058;52.018;4.202;2024-03-08T11:30:36;15.20;;;10.70;;
17864;SDS011;9058;52.018;4.202;2024-03-08T11:33:03;15.63;;;10.77;;
17864;SDS011;9058;52.018;4.202;2024-03-08T11:35:30;15.52;;;11.98;;
17864;SDS011;9058;52.018;4.202;2024-03-08T11:38:00;16.02;;;11.10;;
17864;SDS011;9058;52.018;4.202;2024-03-08T11:40:28;14.45;;;9.88;;
17864;SDS011;9058;52.018;4.202;2024-03-08T11:42:55;14.70;;;11.00;;
17864;SDS011;9058;52.018;4.202;2024-03-08T11:45:21;15.35;;;10.88;;
17864;SDS011;9058;52.018;4.202;2024-03-08T11:47:48;16.70;;;13.13;;
17864;SDS011;9058;52.018;4.202;2024-03-08T11:50:14;14.48;;;8.88;;
17864;SDS011;9058;52.018;4.202;2024-03-08T11:52:43;12.90;;;10.32;;
17864;SDS011;9058;52.018;4.202;2024-03-08T11:55:12;14.18;;;10.85;;
17864;SDS011;9058;52.018;4.202;2024-03-08T11:57:40;13.15;;;9.57;;
17864;SDS011;9058;52.018;4.202;2024-03-08T12:00:14;15.25;;;11.73;;
17864;SDS011;9058;52.018;4.202;2024-03-08T12:02:47;17.00;;;12.23;;
17864;SDS011;9058;52.018;4.202;2024-03-08T12:05:26;15.27;;;10.35;;
17864;SDS011;9058;52.018;4.202;2024-03-08T12:07:55;16.88;;;12.50;;
17864;SDS011;9058;52.018;4.202;2024-03-08T12:10:26;13.85;;;10.77;;
17864;SDS011;9058;52.018;4.202;2024-03-08T12:12:54;15.50;;;10.65;;
17864;SDS011;9058;52.018;4.202;2024-03-08T12:15:21;9.43;;;8.15;;
17864;SDS011;9058;52.018;4.202;2024-03-08T12:17:49;13.43;;;10.05;;
17864;SDS011;9058;52.018;4.202;2024-03-08T12:20:17;14.10;;;10.57;;
17864;SDS011;9058;52.018;4.202;2024-03-08T12:22:44;16.98;;;13.18;;
17864;SDS011;9058;52.018;4.202;2024-03-08T12:25:11;15.55;;;10.93;;
17864;SDS011;9058;52.018;4.202;2024-03-08T12:27:39;11.50;;;9.30;;
17864;SDS011;9058;52.018;4.202;2024-03-08T12:32:48;15.90;;;11.30;;
17864;SDS011;9058;52.018;4.202;2024-03-08T12:35:17;12.05;;;8.85;;
17864;SDS011;9058;52.018;4.202;2024-03-08T12:37:43;13.45;;;9.63;;
17864;SDS011;9058;52.018;4.202;2024-03-08T12:40:10;14.88;;;10.13;;
17864;SDS011;9058;52.018;4.202;2024-03-08T12:42:44;15.13;;;12.45;;
17864;SDS011;9058;52.018;4.202;2024-03-08T12:45:12;13.50;;;10.65;;
17864;SDS011;9058;52.018;4.202;2024-03-08T12:47:39;12.63;;;9.38;;
17864;SDS011;9058;52.018;4.202;2024-03-08T12:50:07;15.38;;;10.55;;
17864;SDS011;9058;52.018;4.202;2024-03-08T12:52:35;13.73;;;10.05;;
17864;SDS011;9058;52.018;4.202;2024-03-08T12:55:02;15.95;;;11.90;;
17864;SDS011;9058;52.018;4.202;2024-03-08T12:57:32;15.02;;;11.52;;
17864;SDS011;9058;52.018;4.202;2024-03-08T13:00:01;17.05;;;13.30;;
17864;SDS011;9058;52.018;4.202;2024-03-08T13:02:29;14.30;;;10.55;;
17864;SDS011;9058;52.018;4.202;2024-03-08T13:04:57;13.00;;;10.38;;
17864;SDS011;9058;52.018;4.202;2024-03-08T13:07:24;13.43;;;10.10;;
17864;SDS011;9058;52.018;4.202;2024-03-08T13:09:52;15.48;;;13.15;;
17864;SDS011;9058;52.018;4.202;2024-03-08T13:12:19;14.63;;;10.55;;
17864;SDS011;9058;52.018;4.202;2024-03-08T13:14:46;18.52;;;13.43;;
17864;SDS011;9058;52.018;4.202;2024-03-08T13:17:14;12.77;;;9.52;;
17864;SDS011;9058;52.018;4.202;2024-03-08T13:19:43;16.83;;;11.98;;
17864;SDS011;9058;52.018;4.202;2024-03-08T13:22:09;17.23;;;12.43;;
17864;SDS011;9058;52.018;4.202;2024-03-08T13:24:38;16.33;;;13.40;;
17864;SDS011;9058;52.018;4.202;2024-03-08T13:27:06;16.17;;;13.32;;
17864;SDS011;9058;52.018;4.202;2024-03-08T13:29:42;18.15;;;12.88;;
17864;SDS011;9058;52.018;4.202;2024-03-08T13:32:08;14.02;;;11.15;;
17864;SDS011;9058;52.018;4.202;2024-03-08T13:34:39;11.57;;;10.30;;
17864;SDS011;9058;52.018;4.202;2024-03-08T13:37:06;12.27;;;9.38;;
17864;SDS011;9058;52.018;4.202;2024-03-08T13:39:34;12.77;;;10.38;;
17864;SDS011;9058;52.018;4.202;2024-03-08T13:42:06;14.45;;;12.02;;
17864;SDS011;9058;52.018;4.202;2024-03-08T13:44:34;17.80;;;12.98;;
17864;SDS011;9058;52.018;4.202;2024-03-08T13:47:02;19.92;;;10.35;;
17864;SDS011;9058;52.018;4.202;2024-03-08T13:49:30;19.00;;;11.48;;
17864;SDS011;9058;52.018;4.202;2024-03-08T13:51:58;16.55;;;12.80;;
17864;SDS011;9058;52.018;4.202;2024-03-08T13:54:26;15.25;;;10.85;;
17864;SDS011;9058;52.018;4.202;2024-03-08T13:56:56;15.20;;;10.52;;
17864;SDS011;9058;52.018;4.202;2024-03-08T13:59:22;12.80;;;9.27;;
17864;SDS011;9058;52.018;4.202;2024-03-08T14:01:49;15.55;;;11.55;;
17864;SDS011;9058;52.018;4.202;2024-03-08T14:04:15;17.58;;;11.55;;
17864;SDS011;9058;52.018;4.202;2024-03-08T14:06:42;16.80;;;11.15;;
17864;SDS011;9058;52.018;4.202;2024-03-08T14:09:12;14.95;;;11.52;;
17864;SDS011;9058;52.018;4.202;2024-03-08T14:11:42;15.85;;;10.68;;
17864;SDS011;9058;52.018;4.202;2024-03-08T14:14:09;12.30;;;8.98;;
17864;SDS011;9058;52.018;4.202;2024-03-08T14:16:36;12.20;;;8.20;;
17864;SDS011;9058;52.018;4.202;2024-03-08T14:19:02;18.38;;;13.80;;
17864;SDS011;9058;52.018;4.202;2024-03-08T14:21:30;15.00;;;10.80;;
17864;SDS011;9058;52.018;4.202;2024-03-08T14:23:57;15.30;;;9.65;;
17864;SDS011;9058;52.018;4.202;2024-03-08T14:26:25;15.07;;;9.95;;
17864;SDS011;9058;52.018;4.202;2024-03-08T14:28:51;12.52;;;9.75;;
17864;SDS011;9058;52.018;4.202;2024-03-08T14:31:19;13.18;;;10.77;;
17864;SDS011;9058;52.018;4.202;2024-03-08T14:33:48;14.40;;;11.32;;
17864;SDS011;9058;52.018;4.202;2024-03-08T14:36:16;13.20;;;10.70;;
17864;SDS011;9058;52.018;4.202;2024-03-08T14:38:44;16.75;;;13.02;;
17864;SDS011;9058;52.018;4.202;2024-03-08T14:41:12;14.68;;;12.52;;